Time;durP1;ratioP1;P1;durP2;ratioP2;P2;SDS_P1;SDS_P2;PMS_P1;PMS_P2;Temp;Humidity;BMP_temperature;BMP_pressure;BME280_temperature;BME280_humidity;BME280_pressure;Samples;Min_cycle;Max_cycle;Signal;HPM_P1;HPM_P2
2023/10/19 08:06:26;;;;;;;;;;;;;;;5.60;100.00;97588.16;4977123;28;19968;-84
2023/10/19 08:08:52;;;;;;;;;;;;;;;5.58;100.00;97583.00;4991820;28;19930;-84
2023/10/19 08:11:18;;;;;;;;;;;;;;;5.62;100.00;97574.03;4983287;28;20020;-82
2023/10/19 08:13:43;;;;;;;;;;;;;;;5.67;100.00;97576.38;4980782;28;20012;-82
2023/10/19 08:16:09;;;;;;;;;;;;;;;5.64;100.00;97566.88;4990659;28;19922;-82
2023/10/19 08:18:35;;;;;;;;;;;;;;;5.63;100.00;97561.72;4990567;28;20432;-82
2023/10/19 08:21:01;;;;;;;;;;;;;;;5.67;100.00;97572.94;4990963;28;20399;-82
2023/10/19 08:23:27;;;;;;;;;;;;;;;5.65;100.00;97562.50;4987827;28;20408;-82
2023/10/19 08:25:52;;;;;;;;;;;;;;;5.64;100.00;97559.00;4995638;28;19926;-83
2023/10/19 08:28:18;;;;;;;;;;;;;;;5.74;100.00;97555.84;4979734;28;19926;-85
2023/10/19 08:30:45;;;;;;;;;;;;;;;5.68;100.00;97546.56;4990678;28;19969;-83
2023/10/19 08:33:13;;;;;;;;;;;;;;;5.75;100.00;97552.31;4991230;28;19922;-83
2023/10/19 08:35:39;;;;;;;;;;;;;;;5.65;100.00;97559.88;4991811;28;19922;-85
2023/10/19 08:38:11;;;;;;;;;;;;;;;5.63;100.00;97557.34;4992968;28;19941;-85
2023/10/19 08:40:36;;;;;;;;;;;;;;;5.67;100.00;97558.00;4995289;28;20373;-84
2023/10/19 08:43:04;;;;;;;;;;;;;;;5.65;100.00;97541.47;4989936;28;19917;-84
2023/10/19 08:45:30;;;;;;;;;;;;;;;5.74;100.00;97529.56;4991575;28;20388;-83
2023/10/19 08:47:59;;;;;;;;;;;;;;;5.71;100.00;97529.75;4990156;28;19918;-84
2023/10/19 08:50:31;;;;;;;;;;;;;;;5.74;100.00;97525.16;4990946;28;19922;-94
2023/10/19 08:52:57;;;;;;;;;;;;;;;5.69;100.00;97526.38;4983064;28;19922;-80
2023/10/19 08:55:23;;;;;;;;;;;;;;;5.74;100.00;97521.69;4992002;28;19925;-83
2023/10/19 08:57:49;;;;;;;;;;;;;;;5.70;100.00;97520.19;4990590;28;19925;-85
2023/10/19 09:00:17;;;;;;;;;;;;;;;5.82;100.00;97525.56;4998633;28;20016;-83
2023/10/19 09:02:43;;;;;;;;;;;;;;;5.79;100.00;97517.88;4990502;28;20515;-83
2023/10/19 09:05:19;;;;;;;;;;;;;;;5.77;100.00;97518.88;4981699;28;20017;-83
2023/10/19 09:07:54;;;;;;;;;;;;;;;5.72;100.00;97526.19;4990247;28;19922;-84
2023/10/19 09:10:22;;;;;;;;;;;;;;;5.76;100.00;97511.91;4991828;28;19924;-84
2023/10/19 09:12:58;;;;;;;;;;;;;;;5.72;100.00;97516.53;4992378;28;19922;-83
2023/10/19 09:15:24;;;;;;;;;;;;;;;5.73;100.00;97509.50;4992444;28;20009;-90
2023/10/19 09:17:54;;;;;;;;;;;;;;;5.71;100.00;97498.22;4989065;28;20017;-83
2023/10/19 09:20:27;;;;;;;;;;;;;;;5.74;100.00;97503.28;4991865;28;20692;-83
2023/10/19 09:22:52;;;;;;;;;;;;;;;5.76;100.00;97490.91;4994822;28;19941;-83
2023/10/19 09:25:18;;;;;;;;;;;;;;;5.74;100.00;97500.66;4986753;28;19925;-82
2023/10/19 09:27:43;;;;;;;;;;;;;;;5.72;100.00;97495.50;4985043;28;19922;-83
2023/10/19 09:30:11;;;;;;;;;;;;;;;5.69;100.00;97493.06;4996252;28;19924;-83
2023/10/19 09:32:39;;;;;;;;;;;;;;;5.70;100.00;97486.03;4994292;28;19972;-83
2023/10/19 09:35:04;;;;;;;;;;;;;;;5.69;100.00;97494.84;4995967;28;19918;-83
2023/10/19 09:40:38;;;;;;;;;;;;;;;5.62;100.00;97500.47;4996057;28;19924;-85
2023/10/19 09:43:06;;;;;;;;;;;;;;;5.75;100.00;97494.47;4993855;28;19980;-85
2023/10/19 09:45:34;;;;;;;;;;;;;;;5.71;100.00;97501.72;4986050;28;19965;-85
2023/10/19 09:48:01;;;;;;;;;;;;;;;5.74;100.00;97503.28;4993305;28;20294;-85
2023/10/19 09:50:27;;;;;;;;;;;;;;;5.63;100.00;97502.16;4994700;28;19953;-86
2023/10/19 09:52:52;;;;;;;;;;;;;;;5.77;100.00;97513.63;4994768;28;19981;-86
2023/10/19 09:55:23;;;;;;;;;;;;;;;5.78;100.00;97510.91;4986166;28;19984;-86
2023/10/19 09:58:14;;;;;;;;;;;;;;;5.76;100.00;97498.78;4984618;28;19917;-86
2023/10/19 10:00:44;;;;;;;;;;;;;;;5.77;100.00;97495.22;4995063;28;19922;-88
2023/10/19 10:03:30;;;;;;;;;;;;;;;5.80;100.00;97493.25;4993139;28;20379;-89
2023/10/19 10:05:55;;;;;;;;;;;;;;;5.83;100.00;97500.13;4985242;28;19972;-85
2023/10/19 10:08:21;;;;;;;;;;;;;;;5.76;100.00;97497.03;4995593;28;20312;-86
2023/10/19 10:10:47;;;;;;;;;;;;;;;5.82;100.00;97491.41;5001855;28;20276;-86
2023/10/19 10:13:24;;;;;;;;;;;;;;;5.82;100.00;97480.03;4994710;28;20380;-85
2023/10/19 10:15:52;;;;;;;;;;;;;;;5.82;100.00;97483.53;4995349;28;20361;-86
2023/10/19 10:18:17;;;;;;;;;;;;;;;5.83;100.00;97481.72;4994181;28;19956;-85
2023/10/19 10:20:43;;;;;;;;;;;;;;;5.72;100.00;97479.72;4994594;28;19961;-85
2023/10/19 10:23:26;;;;;;;;;;;;;;;5.77;100.00;97476.84;5001559;28;20017;-85
2023/10/19 10:25:58;;;;;;;;;;;;;;;5.78;100.00;97474.13;4993303;28;19921;-85
2023/10/19 10:28:23;;;;;;;;;;;;;;;5.74;100.00;97471.75;4995227;28;19917;-84
2023/10/19 10:31:08;;;;;;;;;;;;;;;5.73;100.00;97468.31;4998495;28;20579;-85
2023/10/19 10:33:54;;;;;;;;;;;;;;;5.69;100.00;97485.16;5000077;28;19972;-84
2023/10/19 10:36:20;;;;;;;;;;;;;;;5.71;100.00;97480.69;4993771;28;19994;-85
2023/10/19 10:38:46;;;;;;;;;;;;;;;5.70;100.00;97475.53;4993624;28;19917;-84
2023/10/19 10:41:11;;;;;;;;;;;;;;;5.84;100.00;97467.66;4994237;28;20439;-85
2023/10/19 10:43:53;;;;;;;;;;;;;;;5.82;100.00;97470.38;4993606;28;19917;-85
2023/10/19 10:46:22;;;;;;;;;;;;;;;5.78;100.00;97466.22;4993327;28;19922;-85
2023/10/19 10:48:51;;;;;;;;;;;;;;;5.79;100.00;97469.69;4981693;28;19924;-85
2023/10/19 10:51:23;;;;;;;;;;;;;;;5.77;100.00;97476.84;4993348;28;20607;-85
2023/10/19 10:53:50;;;;;;;;;;;;;;;5.91;100.00;97476.00;4994533;28;20036;-85
2023/10/19 10:56:16;;;;;;;;;;;;;;;5.80;100.00;97481.91;4993422;28;19922;-85
2023/10/19 10:58:41;;;;;;;;;;;;;;;5.75;100.00;97473.47;4992489;28;20419;-85
2023/10/19 11:01:07;;;;;;;;;;;;;;;5.77;100.00;97479.47;4984752;28;20008;-86
2023/10/19 11:03:32;;;;;;;;;;;;;;;5.93;100.00;97482.84;4993464;28;19965;-85
2023/10/19 11:06:09;;;;;;;;;;;;;;;5.94;100.00;97471.41;4994162;28;19926;-86
2023/10/19 11:08:36;;;;;;;;;;;;;;;5.88;100.00;97468.31;4990314;28;19933;-86
2023/10/19 11:11:30;;;;;;;;;;;;;;;5.86;100.00;97465.78;4993218;28;20365;-86
2023/10/19 11:14:08;;;;;;;;;;;;;;;5.90;100.00;97464.63;4994277;28;19922;-86
2023/10/19 11:16:33;;;;;;;;;;;;;;;5.93;100.00;97472.34;5000995;28;20399;-85
2023/10/19 11:18:59;;;;;;;;;;;;;;;5.94;100.00;97470.56;4997006;28;19926;-85
2023/10/19 11:21:24;;;;;;;;;;;;;;;5.96;100.00;97482.69;4994310;28;20276;-86
2023/10/19 11:24:22;;;;;;;;;;;;;;;6.02;100.00;97488.53;4994011;28;19918;-87
2023/10/19 11:26:47;;;;;;;;;;;;;;;6.26;100.00;97483.56;4965893;28;19922;-85
2023/10/19 11:29:16;;;;;;;;;;;;;;;6.28;100.00;97479.88;4993267;28;19922;-90
2023/10/19 11:31:41;;;;;;;;;;;;;;;6.17;100.00;97474.44;4993051;28;19969;-85
2023/10/19 11:34:10;;;;;;;;;;;;;;;6.21;100.00;97475.94;4991971;28;19925;-88
2023/10/19 11:36:36;;;;;;;;;;;;;;;6.32;100.00;97476.13;4992723;28;20386;-86
2023/10/19 11:39:11;;;;;;;;;;;;;;;6.32;100.00;97477.91;4993037;28;19922;-87
2023/10/19 11:41:37;;;;;;;;;;;;;;;6.42;100.00;97478.19;4984164;28;19929;-86
2023/10/19 11:44:02;;;;;;;;;;;;;;;6.40;100.00;97474.78;4983402;28;20280;-86
2023/10/19 11:46:29;;;;;;;;;;;;;;;6.44;100.00;97471.88;4984092;28;19925;-86
2023/10/19 11:48:54;;;;;;;;;;;;;;;6.43;100.00;97469.34;4995476;28;19928;-86
2023/10/19 11:51:19;;;;;;;;;;;;;;;6.43;100.00;97456.19;4991216;28;19926;-87
2023/10/19 11:53:45;;;;;;;;;;;;;;;6.47;100.00;97452.44;4991315;28;19925;-86
2023/10/19 11:56:12;;;;;;;;;;;;;;;6.44;100.00;97439.47;4982979;28;19922;-86
2023/10/19 11:58:40;;;;;;;;;;;;;;;6.44;100.00;97429.78;4990663;28;19933;-86
2023/10/19 12:01:08;;;;;;;;;;;;;;;6.34;100.00;97437.41;4991210;28;19991;-86
2023/10/19 12:03:36;;;;;;;;;;;;;;;6.38;100.00;97430.16;4990925;28;20309;-86
2023/10/19 12:06:04;;;;;;;;;;;;;;;6.31;100.00;97434.13;4982979;28;19925;-86
2023/10/19 12:08:29;;;;;;;;;;;;;;;6.39;100.00;97418.72;4992023;28;20020;-86
2023/10/19 12:10:54;;;;;;;;;;;;;;;6.45;100.00;97415.69;4992174;28;20401;-86
2023/10/19 12:13:20;;;;;;;;;;;;;;;6.46;100.00;97416.53;4992265;28;20032;-85
2023/10/19 12:15:51;;;;;;;;;;;;;;;6.42;100.00;97409.78;4991786;28;19918;-86
2023/10/19 12:18:17;;;;;;;;;;;;;;;6.55;100.00;97406.25;4990636;28;19922;-91
2023/10/19 12:20:45;;;;;;;;;;;;;;;6.40;100.00;97409.03;4992132;28;20387;-88
2023/10/19 12:23:10;;;;;;;;;;;;;;;6.38;100.00;97406.50;4998797;28;20365;-86
2023/10/19 12:25:37;;;;;;;;;;;;;;;6.21;100.00;97415.47;4992900;28;19918;-86
2023/10/19 12:28:04;;;;;;;;;;;;;;;6.33;100.00;97416.47;4991577;28;19917;-86
2023/10/19 12:30:32;;;;;;;;;;;;;;;6.39;100.00;97415.25;4992430;28;20288;-86
2023/10/19 12:32:59;;;;;;;;;;;;;;;6.31;100.00;97407.84;4988867;28;19921;-86
2023/10/19 12:35:36;;;;;;;;;;;;;;;6.18;100.00;97403.34;4992429;28;19965;-86
2023/10/19 12:38:05;;;;;;;;;;;;;;;6.25;100.00;97393.28;4988994;28;20004;-87
2023/10/19 12:40:35;;;;;;;;;;;;;;;6.16;100.00;97388.63;4997835;28;19932;-87
2023/10/19 12:43:03;;;;;;;;;;;;;;;6.13;100.00;97387.03;4996912;28;19922;-87
2023/10/19 12:45:28;;;;;;;;;;;;;;;6.17;100.00;97388.53;4992849;28;19922;-86
2023/10/19 12:47:54;;;;;;;;;;;;;;;6.12;100.00;97395.00;4991621;28;20301;-86
2023/10/19 12:50:22;;;;;;;;;;;;;;;6.15;100.00;97392.19;4992026;28;19976;-87
2023/10/19 12:52:48;;;;;;;;;;;;;;;6.13;100.00;97378.28;4983041;28;19968;-86
2023/10/19 12:55:14;;;;;;;;;;;;;;;6.22;100.00;97363.72;4996793;28;19940;-86
2023/10/19 12:57:39;;;;;;;;;;;;;;;6.21;100.00;97339.22;4999187;28;20424;-87
2023/10/19 13:00:23;;;;;;;;;;;;;;;6.19;100.00;97333.22;4988519;28;20461;-87
2023/10/19 13:02:49;;;;;;;;;;;;;;;6.20;100.00;97337.50;5004236;28;19924;-87
2023/10/19 13:05:17;;;;;;;;;;;;;;;6.18;100.00;97352.53;4989196;28;19921;-87
2023/10/19 13:07:43;;;;;;;;;;;;;;;6.17;100.00;97346.47;4999259;28;19928;-86
2023/10/19 13:10:08;;;;;;;;;;;;;;;6.16;100.00;97336.88;4998523;28;19918;-86
2023/10/19 13:12:33;;;;;;;;;;;;;;;6.33;100.00;97329.66;4996512;28;20816;-87
2023/10/19 13:14:59;;;;;;;;;;;;;;;6.21;100.00;97328.69;4999061;28;19938;-86
2023/10/19 13:17:24;;;;;;;;;;;;;;;6.09;100.00;97330.28;4997663;28;20446;-87
2023/10/19 13:19:54;;;;;;;;;;;;;;;6.04;100.00;97321.88;4988102;28;19918;-87
2023/10/19 13:22:21;;;;;;;;;;;;;;;6.27;100.00;97317.78;4987529;28;19957;-88
2023/10/19 13:24:46;;;;;;;;;;;;;;;6.40;100.00;97322.22;4996552;28;19929;-86
2023/10/19 13:27:12;;;;;;;;;;;;;;;6.31;100.00;97315.78;5002516;28;19922;-89
2023/10/19 13:29:39;;;;;;;;;;;;;;;6.27;100.00;97301.13;4999047;28;19925;-88
2023/10/19 13:32:05;;;;;;;;;;;;;;;6.32;100.00;97304.34;4997346;28;20052;-87
2023/10/19 13:34:30;;;;;;;;;;;;;;;6.22;100.00;97306.69;4997694;28;20009;-87
2023/10/19 13:37:07;;;;;;;;;;;;;;;6.22;100.00;97292.72;4989328;28;20436;-91
2023/10/19 13:39:33;;;;;;;;;;;;;;;6.23;100.00;97283.88;5006444;28;19918;-87
2023/10/19 13:41:58;;;;;;;;;;;;;;;6.14;100.00;97280.06;4998214;28;19933;-88
2023/10/19 13:44:25;;;;;;;;;;;;;;;6.15;100.00;97272.06;5005503;28;19953;-89
2023/10/19 13:46:54;;;;;;;;;;;;;;;6.31;100.00;97277.16;4989694;28;19953;-92
2023/10/19 13:49:19;;;;;;;;;;;;;;;6.36;100.00;97269.81;4989824;28;19960;-85
2023/10/19 13:51:44;;;;;;;;;;;;;;;6.42;100.00;97257.22;4997097;28;20379;-87
2023/10/19 13:54:10;;;;;;;;;;;;;;;6.35;100.00;97251.50;4998607;28;19957;-86
2023/10/19 13:56:36;;;;;;;;;;;;;;;6.35;100.00;97247.09;4998914;28;19921;-89
2023/10/19 13:59:01;;;;;;;;;;;;;;;6.38;100.00;97242.56;4998515;28;19925;-86
2023/10/19 14:01:28;;;;;;;;;;;;;;;6.36;100.00;97238.25;4997725;28;19929;-87
2023/10/19 14:03:54;;;;;;;;;;;;;;;6.44;100.00;97243.00;4997601;28;20338;-86
2023/10/19 14:06:20;;;;;;;;;;;;;;;6.30;100.00;97238.69;4996225;28;20293;-87
2023/10/19 14:08:45;;;;;;;;;;;;;;;6.35;100.00;97247.09;4995412;28;19924;-86
2023/10/19 14:11:11;;;;;;;;;;;;;;;6.39;100.00;97249.53;4994581;28;19917;-87
2023/10/19 14:13:36;;;;;;;;;;;;;;;6.46;100.00;97238.50;4994663;28;19976;-85
2023/10/19 14:16:08;;;;;;;;;;;;;;;6.52;100.00;97238.06;4995798;28;19924;-86
2023/10/19 14:18:33;;;;;;;;;;;;;;;6.55;100.00;97244.94;4994044;28;20021;-85
2023/10/19 14:20:58;;;;;;;;;;;;;;;6.54;100.00;97237.97;4994856;28;20642;-85
2023/10/19 14:23:24;;;;;;;;;;;;;;;6.41;100.00;97232.69;4994982;28;20440;-84
2023/10/19 14:25:52;;;;;;;;;;;;;;;6.55;100.00;97216.81;4995158;28;20479;-87
2023/10/19 14:28:25;;;;;;;;;;;;;;;6.51;100.00;97206.59;4994363;28;20359;-87
2023/10/19 14:30:50;;;;;;;;;;;;;;;6.35;100.00;97194.50;4995095;28;19921;-84
2023/10/19 14:33:16;;;;;;;;;;;;;;;6.50;100.00;97192.63;4982526;28;19944;-86
2023/10/19 14:35:41;;;;;;;;;;;;;;;6.53;100.00;97200.31;4993489;28;19996;-86
2023/10/19 14:38:09;;;;;;;;;;;;;;;6.46;100.00;97182.41;4994917;28;19924;-87
2023/10/19 14:40:34;;;;;;;;;;;;;;;6.43;100.00;97174.72;4994224;28;19949;-84
2023/10/19 14:43:03;;;;;;;;;;;;;;;6.57;100.00;97169.38;4994940;28;19976;-89
2023/10/19 14:45:28;;;;;;;;;;;;;;;6.34;100.00;97152.53;4992612;28;19929;-87
2023/10/19 14:47:55;;;;;;;;;;;;;;;6.41;100.00;97156.41;4992351;28;19921;-91
2023/10/19 14:50:21;;;;;;;;;;;;;;;6.54;100.00;97164.31;4985803;28;19925;-84
2023/10/19 14:52:48;;;;;;;;;;;;;;;6.47;100.00;97155.16;4993940;28;19922;-88
2023/10/19 14:55:15;;;;;;;;;;;;;;;6.57;100.00;97165.91;4993449;28;20008;-85
2023/10/19 14:57:41;;;;;;;;;;;;;;;6.54;100.00;97167.81;4984072;28;20017;-86
2023/10/19 15:00:26;;;;;;;;;;;;;;;6.47;100.00;97163.06;4994340;28;19925;-85
2023/10/19 15:02:54;;;;;;;;;;;;;;;6.60;100.00;97156.00;4990950;28;19976;-85
2023/10/19 15:05:20;;;;;;;;;;;;;;;7.85;100.00;97157.72;4994903;28;19922;-86
2023/10/19 15:07:59;;;;;;;;;;;;;;;6.69;100.00;97155.38;4993183;28;20251;-85
2023/10/19 15:10:26;;;;;;;;;;;;;;;6.63;100.00;97145.25;4992727;28;20005;-84
2023/10/19 15:12:51;;;;;;;;;;;;;;;6.72;100.00;97139.38;4992789;28;20336;-84
2023/10/19 15:15:19;;;;;;;;;;;;;;;6.63;100.00;97144.44;4994852;28;19922;-89
2023/10/19 15:17:45;;;;;;;;;;;;;;;6.64;100.00;97141.69;4981843;28;19918;-86
2023/10/19 15:20:11;;;;;;;;;;;;;;;6.68;100.00;97139.69;4993984;28;19925;-85
2023/10/19 15:22:40;;;;;;;;;;;;;;;6.62;100.00;97148.88;4993228;28;19968;-83
2023/10/19 15:25:08;;;;;;;;;;;;;;;6.62;100.00;97154.13;4994199;28;19922;-84
2023/10/19 15:27:35;;;;;;;;;;;;;;;6.61;100.00;97162.97;4999854;28;19922;-85
2023/10/19 15:30:02;;;;;;;;;;;;;;;6.55;100.00;97148.41;4993724;28;19964;-86
2023/10/19 15:32:30;;;;;;;;;;;;;;;6.57;100.00;97142.22;4982377;28;19928;-88
2023/10/19 15:34:56;;;;;;;;;;;;;;;6.62;100.00;97146.22;4992448;28;19929;-92
2023/10/19 15:37:22;;;;;;;;;;;;;;;6.66;100.00;97149.47;4993981;28;19942;-86
2023/10/19 15:39:47;;;;;;;;;;;;;;;6.63;100.00;97144.44;4993980;28;20012;-86
2023/10/19 15:42:13;;;;;;;;;;;;;;;6.68;100.00;97122.09;4993252;28;20008;-86
2023/10/19 15:44:38;;;;;;;;;;;;;;;6.72;100.00;97120.94;4993637;28;19922;-85
2023/10/19 15:47:09;;;;;;;;;;;;;;;6.69;100.00;97122.97;4993782;28;19972;-86
2023/10/19 15:49:56;;;;;;;;;;;;;;;6.84;100.00;97128.94;4992488;28;19929;-86
2023/10/19 15:52:22;;;;;;;;;;;;;;;6.69;100.00;97122.97;4993395;28;20380;-86
2023/10/19 15:54:48;;;;;;;;;;;;;;;6.68;100.00;97116.84;4993580;28;19917;-86
2023/10/19 15:57:14;;;;;;;;;;;;;;;6.60;100.00;97121.78;4992635;28;19928;-86
2023/10/19 15:59:39;;;;;;;;;;;;;;;6.56;100.00;97133.50;4993441;28;20290;-86
2023/10/19 16:02:15;;;;;;;;;;;;;;;;;;;;;
2023/10/19 16:04:42;;;;;;;;;;;;;;;6.68;100.00;97140.53;4992113;28;19918;-86
2023/10/19 16:07:08;;;;;;;;;;;;;;;6.72;100.00;97142.00;4993185;28;19930;-88
2023/10/19 16:12:42;;;;;;;;;;;;;;;6.82;100.00;97139.56;5078634;23;19936;-86
2023/10/19 16:15:07;;;;;;;;;;;;;;;6.75;100.00;97148.84;5012775;28;20292;-87
2023/10/19 16:17:32;;;;;;;;;;;;;;;6.71;100.00;97152.63;5002791;28;19913;-85
2023/10/19 16:19:58;;;;;;;;;;;;;;;6.64;100.00;97149.59;5001982;28;19976;-86
2023/10/19 16:22:23;;;;;;;;;;;;;;;6.56;100.00;97162.44;5012703;28;19920;-87
2023/10/19 16:24:48;;;;;;;;;;;;;;;6.59;100.00;97164.00;5012636;28;19925;-86
2023/10/19 16:27:14;;;;;;;;;;;;;;;6.69;100.00;97167.69;5019001;28;20392;-87
2023/10/19 16:29:57;;;;;;;;;;;;;;;6.69;100.00;97168.53;5001733;28;20319;-91
2023/10/19 16:32:27;;;;;;;;;;;;;;;6.80;100.00;97172.22;5002408;28;19940;-92
2023/10/19 16:34:53;;;;;;;;;;;;;;;6.86;100.00;97151.59;5001657;28;19917;-87
2023/10/19 16:37:18;;;;;;;;;;;;;;;6.75;100.00;97150.63;5012542;28;19968;-86
2023/10/19 16:39:44;;;;;;;;;;;;;;;6.68;100.00;97160.75;5002481;28;19926;-86
2023/10/19 16:42:09;;;;;;;;;;;;;;;6.80;100.00;97159.06;5002582;28;19926;-86
2023/10/19 16:44:34;;;;;;;;;;;;;;;6.81;100.00;97163.38;5012393;28;19941;-86
2023/10/19 16:47:00;;;;;;;;;;;;;;;6.80;100.00;97162.53;5002486;28;19929;-87
2023/10/19 16:49:25;;;;;;;;;;;;;;;6.70;100.00;97161.47;5011316;28;19924;-85
2023/10/19 16:51:50;;;;;;;;;;;;;;;6.73;100.00;97172.66;5002878;28;20431;-87
2023/10/19 16:54:16;;;;;;;;;;;;;;;6.86;100.00;97171.78;5012024;28;19917;-87
2023/10/19 16:56:46;;;;;;;;;;;;;;;6.85;100.00;97167.47;5012127;28;19918;-82
2023/10/19 16:59:12;;;;;;;;;;;;;;;6.78;100.00;97163.56;5011816;28;19921;-86
2023/10/19 17:01:37;;;;;;;;;;;;;;;6.69;100.00;97155.38;5012168;28;20020;-86
2023/10/19 17:04:02;;;;;;;;;;;;;;;6.72;100.00;97154.34;5011405;28;20004;-86
2023/10/19 17:06:28;;;;;;;;;;;;;;;6.79;100.00;97154.75;5012100;28;20024;-87
2023/10/19 17:08:53;;;;;;;;;;;;;;;6.85;100.00;97154.31;5012247;28;20361;-86
2023/10/19 17:11:18;;;;;;;;;;;;;;;6.81;100.00;97158.09;5002447;28;19917;-87
2023/10/19 17:13:44;;;;;;;;;;;;;;;6.77;100.00;97146.94;5001989;28;19932;-85
2023/10/19 17:16:10;;;;;;;;;;;;;;;6.74;100.00;97120.84;5002196;28;19917;-85
2023/10/19 17:18:35;;;;;;;;;;;;;;;6.76;100.00;97103.16;5000587;28;19918;-86
2023/10/19 17:21:04;;;;;;;;;;;;;;;6.82;100.00;97086.94;5002375;28;20269;-86
2023/10/19 17:23:29;;;;;;;;;;;;;;;6.91;100.00;97077.56;4997795;28;20353;-87
2023/10/19 17:25:54;;;;;;;;;;;;;;;6.72;100.00;97063.06;5012047;28;19921;-85
2023/10/19 17:28:20;;;;;;;;;;;;;;;6.77;100.00;97061.91;5002405;28;19918;-85
2023/10/19 17:30:48;;;;;;;;;;;;;;;6.85;100.00;97070.09;5002032;28;20871;-84
2023/10/19 17:33:14;;;;;;;;;;;;;;;6.88;100.00;97061.97;5009992;28;20137;-85
2023/10/19 17:35:40;;;;;;;;;;;;;;;6.81;100.00;97069.47;5011740;28;20372;-85
2023/10/19 17:38:05;;;;;;;;;;;;;;;6.93;100.00;97061.66;5002158;28;19931;-87
2023/10/19 17:40:31;;;;;;;;;;;;;;;6.76;100.00;97054.94;5002036;28;19964;-85
2023/10/19 17:42:56;;;;;;;;;;;;;;;6.77;100.00;97062.72;5005333;28;19922;-86
2023/10/19 17:45:21;;;;;;;;;;;;;;;6.89;100.00;97067.13;5014792;28;19932;-86
2023/10/19 17:47:47;;;;;;;;;;;;;;;6.89;100.00;97077.66;5004306;28;20019;-91
2023/10/19 17:50:13;;;;;;;;;;;;;;;6.94;100.00;97074.72;5014730;28;19924;-88
2023/10/19 17:52:39;;;;;;;;;;;;;;;6.82;100.00;97067.69;5015094;28;20027;-86
2023/10/19 17:55:04;;;;;;;;;;;;;;;6.91;100.00;97070.50;5005569;28;20020;-87
2023/10/19 17:57:31;;;;;;;;;;;;;;;6.81;100.00;97058.09;5005614;28;19925;-85
2023/10/19 17:59:56;;;;;;;;;;;;;;;6.87;100.00;97042.69;5015186;28;20392;-84
2023/10/19 18:02:21;;;;;;;;;;;;;;;6.93;100.00;97043.22;5015131;28;19918;-85
2023/10/19 18:04:49;;;;;;;;;;;;;;;6.92;100.00;97045.00;5004092;28;19918;-85
2023/10/19 18:07:15;;;;;;;;;;;;;;;6.93;100.00;97043.22;5015146;28;19929;-85
2023/10/19 18:09:44;;;;;;;;;;;;;;;6.89;100.00;97032.06;5029392;23;19918;-87
2023/10/19 18:12:09;;;;;;;;;;;;;;;6.91;100.00;97032.81;5007209;28;20013;-88
2023/10/19 18:14:34;;;;;;;;;;;;;;;6.91;100.00;97035.44;5015033;28;20347;-87
2023/10/19 18:17:00;;;;;;;;;;;;;;;6.93;100.00;97025.63;5015191;28;19921;-87
2023/10/19 18:19:28;;;;;;;;;;;;;;;6.88;100.00;97025.13;5006030;28;20003;-84
2023/10/19 18:21:54;;;;;;;;;;;;;;;6.86;100.00;97025.25;5023386;28;19956;-84
2023/10/19 18:24:19;;;;;;;;;;;;;;;6.71;100.00;97018.44;5007196;28;19921;-86
2023/10/19 18:26:45;;;;;;;;;;;;;;;6.75;100.00;97003.25;5024207;28;20521;-84
2023/10/19 18:29:10;;;;;;;;;;;;;;;6.82;100.00;97001.88;5007326;28;19967;-84
2023/10/19 18:31:36;;;;;;;;;;;;;;;6.80;100.00;96999.34;5024724;28;20016;-84
2023/10/19 18:34:02;;;;;;;;;;;;;;;6.87;100.00;97005.84;5006168;28;20360;-83
2023/10/19 18:36:33;;;;;;;;;;;;;;;6.85;100.00;96994.59;5007260;28;19922;-83
2023/10/19 18:38:58;;;;;;;;;;;;;;;6.85;100.00;96989.31;5014719;28;19967;-83
2023/10/19 18:41:26;;;;;;;;;;;;;;;6.92;100.00;96979.19;5006727;28;19921;-84
2023/10/19 18:43:52;;;;;;;;;;;;;;;6.88;100.00;96980.38;5024213;28;20432;-83
2023/10/19 18:46:18;;;;;;;;;;;;;;;6.90;100.00;96989.81;5006035;28;19925;-84
2023/10/19 18:48:45;;;;;;;;;;;;;;;6.85;100.00;96991.97;4988600;28;20004;-84
2023/10/19 18:51:11;;;;;;;;;;;;;;;6.71;100.00;96990.31;5006290;28;19921;-84
2023/10/19 18:53:36;;;;;;;;;;;;;;;6.73;100.00;96987.56;5005907;28;19917;-85
2023/10/19 18:56:07;;;;;;;;;;;;;;;6.78;100.00;96984.63;5024130;28;19921;-88
2023/10/19 18:58:33;;;;;;;;;;;;;;;6.69;100.00;96986.13;5023695;28;19924;-87
2023/10/19 19:01:02;;;;;;;;;;;;;;;6.63;100.00;96990.03;5024147;28;20787;-88
2023/10/19 19:03:29;;;;;;;;;;;;;;;6.69;100.00;96992.22;5021702;28;20364;-88
2023/10/19 19:05:57;;;;;;;;;;;;;;;6.85;100.00;96999.03;5024822;28;19921;-89
2023/10/19 19:08:24;;;;;;;;;;;;;;;6.77;100.00;97009.28;5025119;28;20403;-84
2023/10/19 19:10:49;;;;;;;;;;;;;;;6.81;100.00;97010.72;5022625;28;19922;-83
2023/10/19 19:13:15;;;;;;;;;;;;;;;6.82;100.00;97009.78;5023509;28;19924;-84
2023/10/19 19:15:43;;;;;;;;;;;;;;;6.81;100.00;97006.31;5006224;28;19921;-83
2023/10/19 19:18:08;;;;;;;;;;;;;;;6.79;100.00;97012.63;5022525;28;20368;-81
2023/10/19 19:20:33;;;;;;;;;;;;;;;6.89;100.00;97013.63;5023876;28;19921;-82
2023/10/19 19:22:59;;;;;;;;;;;;;;;6.91;100.00;97006.47;5022462;28;19918;-82
2023/10/19 19:25:24;;;;;;;;;;;;;;;6.89;100.00;97014.50;5023320;28;20277;-83
2023/10/19 19:27:49;;;;;;;;;;;;;;;6.93;100.00;97012.47;5023813;28;19924;-82
2023/10/19 19:30:15;;;;;;;;;;;;;;;6.99;100.00;97013.81;5023599;28;19944;-82
2023/10/19 19:32:40;;;;;;;;;;;;;;;6.92;100.00;97010.78;5021935;28;20368;-83
2023/10/19 19:35:05;;;;;;;;;;;;;;;7.08;100.00;97014.00;5023507;28;20361;-83
2023/10/19 19:37:35;;;;;;;;;;;;;;;7.02;100.00;97016.22;5023150;28;19917;-83
2023/10/19 19:40:02;;;;;;;;;;;;;;;6.93;100.00;97019.53;5012224;28;19929;-84
2023/10/19 19:42:30;;;;;;;;;;;;;;;6.99;100.00;97014.66;5013438;28;19952;-87
2023/10/19 19:44:56;;;;;;;;;;;;;;;6.88;100.00;97011.97;5005297;28;19968;-85
2023/10/19 19:47:21;;;;;;;;;;;;;;;6.89;100.00;97017.13;5021882;28;19921;-86
2023/10/19 19:49:47;;;;;;;;;;;;;;;6.98;100.00;97007.72;5021710;28;20012;-85
2023/10/19 19:52:12;;;;;;;;;;;;;;;6.90;100.00;97010.88;5023480;28;20352;-86
2023/10/19 19:54:37;;;;;;;;;;;;;;;6.88;100.00;97007.53;5022864;28;19925;-86
2023/10/19 19:57:03;;;;;;;;;;;;;;;6.93;100.00;97007.22;5022593;28;19936;-88
2023/10/19 19:59:29;;;;;;;;;;;;;;;6.76;100.00;96997.88;5013272;28;19917;-85
2023/10/19 20:01:55;;;;;;;;;;;;;;;6.87;100.00;96995.31;5023244;28;19928;-86
2023/10/19 20:04:23;;;;;;;;;;;;;;;6.79;100.00;96987.13;5021067;28;19917;-86
2023/10/19 20:06:48;;;;;;;;;;;;;;;6.76;100.00;96989.16;5022497;28;20308;-86
2023/10/19 20:09:17;;;;;;;;;;;;;;;6.87;100.00;96978.69;5022635;28;20372;-87
2023/10/19 20:11:42;;;;;;;;;;;;;;;6.97;100.00;96984.13;5021312;28;19921;-84
2023/10/19 20:14:08;;;;;;;;;;;;;;;6.91;100.00;96974.91;5022251;28;19935;-85
2023/10/19 20:16:34;;;;;;;;;;;;;;;6.87;100.00;96961.09;5012309;28;19917;-85
2023/10/19 20:18:59;;;;;;;;;;;;;;;6.88;100.00;96967.22;5021144;28;20407;-85
2023/10/19 20:21:24;;;;;;;;;;;;;;;6.85;100.00;96962.19;5022303;28;19921;-84
2023/10/19 20:23:50;;;;;;;;;;;;;;;6.92;100.00;96955.50;5022305;28;19917;-84
2023/10/19 20:26:16;;;;;;;;;;;;;;;6.91;100.00;96949.41;5022863;28;19925;-85
2023/10/19 20:28:41;;;;;;;;;;;;;;;6.93;100.00;96951.94;5022404;28;19917;-84
2023/10/19 20:31:09;;;;;;;;;;;;;;;6.96;100.00;96958.78;5022375;28;19924;-84
2023/10/19 20:33:34;;;;;;;;;;;;;;;6.94;100.00;96956.25;5020008;28;20012;-84
2023/10/19 20:36:00;;;;;;;;;;;;;;;6.95;100.00;96944.75;5022279;28;19967;-84
2023/10/19 20:38:26;;;;;;;;;;;;;;;6.98;100.00;96947.16;5005167;28;20027;-84
2023/10/19 20:40:51;;;;;;;;;;;;;;;6.88;100.00;96944.34;5021215;28;19917;-84
2023/10/19 20:43:18;;;;;;;;;;;;;;;6.93;100.00;96951.94;5022532;28;19922;-83
2023/10/19 20:45:44;;;;;;;;;;;;;;;6.95;100.00;96947.38;5022323;28;20019;-84
2023/10/19 20:48:10;;;;;;;;;;;;;;;6.97;100.00;96948.09;5021000;28;20028;-83
2023/10/19 20:50:35;;;;;;;;;;;;;;;6.94;100.00;96950.97;5021091;28;19918;-85
2023/10/19 20:53:33;;;;;;;;;;;;;;;6.95;100.00;96933.38;5021910;28;19928;-93
2023/10/19 20:55:59;;;;;;;;;;;;;;;7.02;100.00;96940.72;5009399;28;19940;-85
2023/10/19 20:58:26;;;;;;;;;;;;;;;6.98;100.00;96939.25;5004227;28;20377;-85
2023/10/19 21:00:51;;;;;;;;;;;;;;;7.02;100.00;96943.34;5022986;28;20365;-85